NDF12E EDLV-EKYT
Flight info
| Callsign | NDF12E |
|---|---|
| Flight time | 1h 1m |
| Altitude | 33000 |
| Route | ERKUM1R ERKUM L179 MEVEL Y850 JUWGI Z529 RORUS DCT ATTUS DCT ETVOK DCT |
| Aircraft | A320/M-SDE3FGHIRWY/LB1 |
Departure
| Time | 2026-05-01 08:37 |
|---|---|
| Airport | Weeze (Niederrhein) Airport (EDLV) |
Arrival
| Time | 2026-05-01 09:38 |
|---|---|
| Airport | Aalborg Airport (EKYT) |
| Time | Latitude | Longitude | Altitude | Speed | Heading |
|---|---|---|---|---|---|
| 2026-05-01 08:01 | 51.59956 | 6.14871 | 119 ft | 0 kts | 89° |
| 2026-05-01 08:03 | 51.59999 | 6.14665 | 110 ft | 0 kts | 91° |
| 2026-05-01 08:27 | 51.59999 | 6.14660 | 109 ft | 2 kts | 91° |
| 2026-05-01 08:27 | 51.60000 | 6.14618 | 109 ft | 4 kts | 87° |
| 2026-05-01 08:28 | 51.59997 | 6.14587 | 108 ft | 4 kts | 17° |
| 2026-05-01 08:28 | 51.59993 | 6.14584 | 108 ft | 0 kts | 1° |
| 2026-05-01 08:29 | 51.59993 | 6.14585 | 108 ft | 0 kts | 1° |
| 2026-05-01 08:32 | 51.59994 | 6.14585 | 108 ft | 2 kts | 0° |
| 2026-05-01 08:32 | 51.60040 | 6.14566 | 108 ft | 11 kts | 310° |
| 2026-05-01 08:33 | 51.60049 | 6.14437 | 111 ft | 12 kts | 271° |
| 2026-05-01 08:33 | 51.60053 | 6.14290 | 111 ft | 14 kts | 272° |
| 2026-05-01 08:33 | 51.60056 | 6.14121 | 112 ft | 16 kts | 272° |
| 2026-05-01 08:33 | 51.60060 | 6.13936 | 114 ft | 17 kts | 272° |
| 2026-05-01 08:34 | 51.60064 | 6.13765 | 112 ft | 16 kts | 272° |
| 2026-05-01 08:34 | 51.60068 | 6.13566 | 112 ft | 19 kts | 271° |
| 2026-05-01 08:34 | 51.60073 | 6.13359 | 111 ft | 20 kts | 272° |
| 2026-05-01 08:34 | 51.60077 | 6.13146 | 109 ft | 21 kts | 272° |
| 2026-05-01 08:35 | 51.60082 | 6.12914 | 108 ft | 18 kts | 272° |
| 2026-05-01 08:35 | 51.60088 | 6.12698 | 109 ft | 20 kts | 272° |
| 2026-05-01 08:35 | 51.60094 | 6.12504 | 109 ft | 13 kts | 278° |
| 2026-05-01 08:35 | 51.60175 | 6.12459 | 111 ft | 14 kts | 2° |
| 2026-05-01 08:36 | 51.60272 | 6.12481 | 113 ft | 14 kts | 39° |
| 2026-05-01 08:36 | 51.60279 | 6.12714 | 110 ft | 44 kts | 92° |
| 2026-05-01 08:36 | 51.60260 | 6.13586 | 117 ft | 108 kts | 91° |
| 2026-05-01 08:36 | 51.60223 | 6.15058 | 238 ft | 145 kts | 97° |
| 2026-05-01 08:37 | 51.60140 | 6.16687 | 874 ft | 150 kts | 98° |
| 2026-05-01 08:37 | 51.60098 | 6.18373 | 1608 ft | 150 kts | 97° |
| 2026-05-01 08:37 | 51.60104 | 6.20079 | 2196 ft | 160 kts | 95° |
| 2026-05-01 08:37 | 51.60368 | 6.21963 | 2517 ft | 188 kts | 82° |
| 2026-05-01 08:38 | 51.60740 | 6.24119 | 2846 ft | 213 kts | 82° |
| 2026-05-01 08:38 | 51.61161 | 6.26548 | 3315 ft | 238 kts | 80° |
| 2026-05-01 08:38 | 51.61632 | 6.29214 | 3989 ft | 253 kts | 79° |
| 2026-05-01 08:38 | 51.62128 | 6.31957 | 4947 ft | 257 kts | 78° |
| 2026-05-01 08:39 | 51.62631 | 6.34744 | 5918 ft | 262 kts | 78° |
| 2026-05-01 08:39 | 51.62935 | 6.37630 | 6895 ft | 262 kts | 90° |
| 2026-05-01 08:39 | 51.62884 | 6.40570 | 7811 ft | 264 kts | 95° |
| 2026-05-01 08:39 | 51.62799 | 6.43545 | 8727 ft | 268 kts | 95° |
| 2026-05-01 08:40 | 51.62616 | 6.49573 | 10510 ft | 276 kts | 95° |
| 2026-05-01 08:40 | 51.62515 | 6.52772 | 10886 ft | 298 kts | 95° |
| 2026-05-01 08:40 | 51.62404 | 6.56232 | 11141 ft | 321 kts | 95° |
| 2026-05-01 08:41 | 51.62284 | 6.59942 | 11382 ft | 341 kts | 95° |
| 2026-05-01 08:41 | 51.62177 | 6.63812 | 11961 ft | 350 kts | 92° |
| 2026-05-01 08:41 | 51.62428 | 6.67741 | 12646 ft | 357 kts | 80° |
| 2026-05-01 08:41 | 51.63212 | 6.71570 | 13342 ft | 365 kts | 68° |
| 2026-05-01 08:42 | 51.64530 | 6.75113 | 14030 ft | 373 kts | 56° |
| 2026-05-01 08:42 | 51.66090 | 6.78467 | 14665 ft | 376 kts | 56° |
| 2026-05-01 08:42 | 51.67634 | 6.81808 | 15298 ft | 378 kts | 56° |
| 2026-05-01 08:42 | 51.69199 | 6.85219 | 15898 ft | 380 kts | 56° |
| 2026-05-01 08:43 | 51.70775 | 6.88666 | 16515 ft | 383 kts | 56° |
| 2026-05-01 08:43 | 51.72367 | 6.92146 | 17116 ft | 387 kts | 56° |
| 2026-05-01 08:43 | 51.73968 | 6.95646 | 17731 ft | 390 kts | 56° |
| 2026-05-01 08:43 | 51.75583 | 6.99184 | 18327 ft | 393 kts | 56° |
| 2026-05-01 08:44 | 51.77209 | 7.02752 | 18924 ft | 396 kts | 55° |
| 2026-05-01 08:44 | 51.78852 | 7.06354 | 19475 ft | 400 kts | 55° |
| 2026-05-01 08:44 | 51.80505 | 7.09981 | 20017 ft | 403 kts | 55° |
| 2026-05-01 08:44 | 51.82146 | 7.13596 | 20576 ft | 405 kts | 55° |
| 2026-05-01 08:45 | 51.83815 | 7.17286 | 21096 ft | 408 kts | 55° |
| 2026-05-01 08:45 | 51.85485 | 7.20888 | 21616 ft | 411 kts | 51° |
| 2026-05-01 08:45 | 51.87434 | 7.24274 | 22098 ft | 415 kts | 47° |
| 2026-05-01 08:45 | 51.89443 | 7.27651 | 22612 ft | 416 kts | 47° |
| 2026-05-01 08:46 | 51.91459 | 7.31043 | 23102 ft | 419 kts | 47° |
| 2026-05-01 08:46 | 51.93484 | 7.34462 | 23580 ft | 421 kts | 46° |
| 2026-05-01 08:46 | 51.95476 | 7.37831 | 24040 ft | 423 kts | 46° |
| 2026-05-01 08:46 | 51.97529 | 7.41310 | 24424 ft | 425 kts | 46° |
| 2026-05-01 08:47 | 51.99575 | 7.44784 | 24822 ft | 428 kts | 46° |
| 2026-05-01 08:47 | 52.01638 | 7.48295 | 25209 ft | 430 kts | 46° |
| 2026-05-01 08:47 | 52.03706 | 7.51819 | 25607 ft | 432 kts | 46° |
| 2026-05-01 08:47 | 52.05782 | 7.55367 | 25989 ft | 434 kts | 46° |
| 2026-05-01 08:48 | 52.07866 | 7.58934 | 26380 ft | 437 kts | 46° |
| 2026-05-01 08:48 | 52.09963 | 7.62525 | 26745 ft | 439 kts | 46° |
| 2026-05-01 08:48 | 52.12083 | 7.66120 | 27129 ft | 441 kts | 45° |
| 2026-05-01 08:48 | 52.14245 | 7.69590 | 27474 ft | 443 kts | 40° |
| 2026-05-01 08:49 | 52.16738 | 7.72552 | 27831 ft | 445 kts | 31° |
| 2026-05-01 08:49 | 52.19501 | 7.74826 | 28195 ft | 447 kts | 21° |
| 2026-05-01 08:49 | 52.22466 | 7.76356 | 28566 ft | 448 kts | 12° |
| 2026-05-01 08:49 | 52.25549 | 7.77103 | 29012 ft | 448 kts | 5° |
| 2026-05-01 08:50 | 52.28648 | 7.77588 | 29573 ft | 446 kts | 5° |
| 2026-05-01 08:50 | 52.31736 | 7.78082 | 30138 ft | 445 kts | 5° |
| 2026-05-01 08:50 | 52.34803 | 7.78651 | 30664 ft | 443 kts | 9° |
| 2026-05-01 08:50 | 52.37814 | 7.79712 | 31134 ft | 442 kts | 12° |
| 2026-05-01 08:51 | 52.40772 | 7.80814 | 31578 ft | 441 kts | 12° |
| 2026-05-01 08:51 | 52.43760 | 7.81918 | 32042 ft | 440 kts | 12° |
| 2026-05-01 08:51 | 52.46747 | 7.83017 | 32508 ft | 439 kts | 12° |
| 2026-05-01 08:51 | 52.49727 | 7.84113 | 32975 ft | 438 kts | 12° |
| 2026-05-01 08:52 | 52.52704 | 7.85208 | 33329 ft | 439 kts | 12° |
| 2026-05-01 08:52 | 52.55688 | 7.86308 | 33401 ft | 441 kts | 12° |
| 2026-05-01 08:52 | 52.61680 | 7.88527 | 33405 ft | 442 kts | 12° |
| 2026-05-01 08:53 | 52.67633 | 7.90751 | 33401 ft | 442 kts | 12° |
| 2026-05-01 08:53 | 52.73630 | 7.92996 | 33403 ft | 442 kts | 12° |
| 2026-05-01 08:54 | 52.79626 | 7.95253 | 33403 ft | 442 kts | 12° |
| 2026-05-01 08:54 | 52.85619 | 7.97508 | 33413 ft | 442 kts | 12° |
| 2026-05-01 08:55 | 52.91584 | 7.99745 | 33410 ft | 442 kts | 12° |
| 2026-05-01 08:55 | 52.97584 | 8.02010 | 33412 ft | 442 kts | 12° |
| 2026-05-01 08:56 | 53.03586 | 8.04278 | 33417 ft | 442 kts | 12° |
| 2026-05-01 08:56 | 53.09582 | 8.06552 | 33416 ft | 442 kts | 12° |
| 2026-05-01 08:57 | 53.15574 | 8.08837 | 33412 ft | 442 kts | 13° |
| 2026-05-01 08:57 | 53.21526 | 8.11115 | 33412 ft | 442 kts | 12° |
| 2026-05-01 08:58 | 53.27520 | 8.13405 | 33413 ft | 442 kts | 13° |
| 2026-05-01 08:58 | 53.33511 | 8.15711 | 33414 ft | 442 kts | 13° |
| 2026-05-01 08:59 | 53.39500 | 8.18021 | 33413 ft | 442 kts | 13° |
| 2026-05-01 08:59 | 53.45450 | 8.20318 | 33412 ft | 442 kts | 13° |
| 2026-05-01 09:00 | 53.51444 | 8.22640 | 33403 ft | 442 kts | 13° |
| 2026-05-01 09:00 | 53.57440 | 8.24971 | 33419 ft | 442 kts | 13° |
| 2026-05-01 09:01 | 53.63440 | 8.27305 | 33414 ft | 442 kts | 13° |
| 2026-05-01 09:01 | 53.69396 | 8.29645 | 33416 ft | 443 kts | 13° |
| 2026-05-01 09:02 | 53.75402 | 8.31989 | 33419 ft | 443 kts | 13° |
| 2026-05-01 09:02 | 53.81414 | 8.34342 | 33409 ft | 444 kts | 13° |
| 2026-05-01 09:03 | 53.87431 | 8.36714 | 33411 ft | 444 kts | 13° |
| 2026-05-01 09:03 | 53.93410 | 8.39077 | 33416 ft | 444 kts | 13° |
| 2026-05-01 09:04 | 53.99436 | 8.41466 | 33418 ft | 445 kts | 13° |
| 2026-05-01 09:04 | 54.05458 | 8.43873 | 33423 ft | 445 kts | 13° |
| 2026-05-01 09:05 | 54.11488 | 8.46297 | 33421 ft | 445 kts | 13° |
| 2026-05-01 09:05 | 54.17523 | 8.48712 | 33428 ft | 445 kts | 13° |
| 2026-05-01 09:06 | 54.23516 | 8.51112 | 33434 ft | 446 kts | 13° |
| 2026-05-01 09:06 | 54.29553 | 8.53535 | 33434 ft | 446 kts | 13° |
| 2026-05-01 09:07 | 54.35594 | 8.55978 | 33439 ft | 446 kts | 13° |
| 2026-05-01 09:07 | 54.41630 | 8.58426 | 33435 ft | 446 kts | 13° |
| 2026-05-01 09:08 | 54.47668 | 8.60875 | 33438 ft | 446 kts | 14° |
| 2026-05-01 09:08 | 54.53663 | 8.63318 | 33428 ft | 446 kts | 14° |
| 2026-05-01 09:09 | 54.59704 | 8.65787 | 33428 ft | 446 kts | 14° |
| 2026-05-01 09:09 | 54.65748 | 8.68267 | 33428 ft | 447 kts | 14° |
| 2026-05-01 09:10 | 54.71796 | 8.70749 | 33433 ft | 447 kts | 14° |
| 2026-05-01 09:10 | 54.77807 | 8.73235 | 33430 ft | 447 kts | 14° |
| 2026-05-01 09:11 | 54.83862 | 8.75743 | 33434 ft | 447 kts | 14° |
| 2026-05-01 09:11 | 54.89874 | 8.78525 | 33433 ft | 447 kts | 18° |
| 2026-05-01 09:12 | 54.95768 | 8.81968 | 33430 ft | 447 kts | 20° |
| 2026-05-01 09:12 | 55.01643 | 8.85571 | 33433 ft | 447 kts | 20° |
| 2026-05-01 09:13 | 55.07518 | 8.89167 | 33437 ft | 448 kts | 20° |
| 2026-05-01 09:13 | 55.13363 | 8.92712 | 33438 ft | 448 kts | 19° |
| 2026-05-01 09:14 | 55.19257 | 8.96267 | 33444 ft | 448 kts | 19° |
| 2026-05-01 09:14 | 55.25151 | 8.99839 | 33427 ft | 449 kts | 19° |
| 2026-05-01 09:15 | 55.31018 | 9.03422 | 33428 ft | 450 kts | 19° |
| 2026-05-01 09:15 | 55.36929 | 9.07034 | 33420 ft | 450 kts | 19° |
| 2026-05-01 09:16 | 55.42852 | 9.10661 | 33435 ft | 451 kts | 20° |
| 2026-05-01 09:17 | 55.51736 | 9.16124 | 33433 ft | 451 kts | 19° |
| 2026-05-01 09:17 | 55.60595 | 9.21616 | 33429 ft | 452 kts | 19° |
| 2026-05-01 09:18 | 55.69496 | 9.27147 | 33418 ft | 452 kts | 19° |
| 2026-05-01 09:19 | 55.75440 | 9.30850 | 32697 ft | 453 kts | 19° |
| 2026-05-01 09:19 | 55.78414 | 9.32717 | 32175 ft | 454 kts | 19° |
| 2026-05-01 09:19 | 55.81356 | 9.34564 | 31669 ft | 456 kts | 19° |
| 2026-05-01 09:20 | 55.87370 | 9.38344 | 30653 ft | 460 kts | 19° |
| 2026-05-01 09:20 | 55.93433 | 9.42163 | 29542 ft | 464 kts | 19° |
| 2026-05-01 09:21 | 55.99554 | 9.46033 | 28445 ft | 469 kts | 19° |
| 2026-05-01 09:21 | 56.02637 | 9.47986 | 27913 ft | 472 kts | 19° |
| 2026-05-01 09:21 | 56.08845 | 9.51940 | 25952 ft | 478 kts | 19° |
| 2026-05-01 09:22 | 56.14992 | 9.55852 | 23556 ft | 462 kts | 19° |
| 2026-05-01 09:22 | 56.21065 | 9.59740 | 22187 ft | 463 kts | 19° |
| 2026-05-01 09:23 | 56.24090 | 9.61684 | 21536 ft | 459 kts | 19° |
| 2026-05-01 09:23 | 56.30056 | 9.65530 | 20284 ft | 452 kts | 19° |
| 2026-05-01 09:24 | 56.35919 | 9.69414 | 19085 ft | 446 kts | 21° |
| 2026-05-01 09:24 | 56.38732 | 9.71521 | 18484 ft | 443 kts | 23° |
| 2026-05-01 09:24 | 56.44286 | 9.76137 | 17023 ft | 437 kts | 25° |
| 2026-05-01 09:25 | 56.49777 | 9.80817 | 15208 ft | 435 kts | 24° |
| 2026-05-01 09:25 | 56.55268 | 9.85378 | 13675 ft | 429 kts | 24° |
| 2026-05-01 09:26 | 56.57948 | 9.87576 | 13266 ft | 420 kts | 24° |
| 2026-05-01 09:26 | 56.63264 | 9.91928 | 11600 ft | 416 kts | 24° |
| 2026-05-01 09:26 | 56.65832 | 9.94043 | 11466 ft | 395 kts | 24° |
| 2026-05-01 09:27 | 56.70523 | 9.97921 | 11206 ft | 343 kts | 24° |
| 2026-05-01 09:27 | 56.72619 | 9.99659 | 11022 ft | 321 kts | 23° |
| 2026-05-01 09:27 | 56.74638 | 10.01338 | 10800 ft | 316 kts | 23° |
| 2026-05-01 09:28 | 56.76619 | 10.02989 | 10589 ft | 312 kts | 24° |
| 2026-05-01 09:28 | 56.78623 | 10.04657 | 9988 ft | 316 kts | 23° |
| 2026-05-01 09:28 | 56.80603 | 10.06305 | 9451 ft | 310 kts | 24° |
| 2026-05-01 09:28 | 56.82548 | 10.07926 | 8859 ft | 305 kts | 23° |
| 2026-05-01 09:29 | 56.86345 | 10.11097 | 7694 ft | 299 kts | 23° |
| 2026-05-01 09:29 | 56.88224 | 10.12667 | 7112 ft | 295 kts | 23° |
| 2026-05-01 09:30 | 56.91913 | 10.15760 | 6008 ft | 287 kts | 23° |
| 2026-05-01 09:30 | 56.93710 | 10.17272 | 5443 ft | 283 kts | 23° |
| 2026-05-01 09:30 | 56.97267 | 10.20272 | 4467 ft | 279 kts | 23° |
| 2026-05-01 09:31 | 56.99016 | 10.21750 | 4064 ft | 280 kts | 23° |
| 2026-05-01 09:31 | 57.00765 | 10.23225 | 3700 ft | 274 kts | 23° |
| 2026-05-01 09:31 | 57.04316 | 10.25348 | 3024 ft | 264 kts | 5° |
| 2026-05-01 09:32 | 57.05529 | 10.25564 | 2994 ft | 265 kts | 358° |
| 2026-05-01 09:32 | 57.09185 | 10.25414 | 2218 ft | 258 kts | 354° |
| 2026-05-01 09:32 | 57.10861 | 10.24637 | 1998 ft | 244 kts | 323° |
| 2026-05-01 09:33 | 57.11831 | 10.22392 | 1995 ft | 214 kts | 283° |
| 2026-05-01 09:33 | 57.11660 | 10.19113 | 1999 ft | 183 kts | 258° |
| 2026-05-01 09:33 | 57.11336 | 10.14588 | 2025 ft | 176 kts | 263° |
| 2026-05-01 09:34 | 57.11245 | 10.13114 | 2031 ft | 175 kts | 264° |
| 2026-05-01 09:34 | 57.11108 | 10.10898 | 2010 ft | 174 kts | 263° |
| 2026-05-01 09:34 | 57.10833 | 10.06467 | 1972 ft | 175 kts | 263° |
| 2026-05-01 09:35 | 57.10694 | 10.04246 | 1806 ft | 175 kts | 263° |
| 2026-05-01 09:35 | 57.10397 | 9.99493 | 1338 ft | 147 kts | 263° |
| 2026-05-01 09:35 | 57.10287 | 9.97737 | 1147 ft | 132 kts | 262° |
| 2026-05-01 09:36 | 57.10217 | 9.96620 | 1030 ft | 129 kts | 262° |
| 2026-05-01 09:36 | 57.10115 | 9.95017 | 851 ft | 128 kts | 261° |
| 2026-05-01 09:36 | 57.10013 | 9.93396 | 689 ft | 127 kts | 262° |
| 2026-05-01 09:36 | 57.09911 | 9.91795 | 513 ft | 125 kts | 261° |
| 2026-05-01 09:37 | 57.09809 | 9.90211 | 363 ft | 125 kts | 261° |
| 2026-05-01 09:37 | 57.09612 | 9.87044 | 29 ft | 121 kts | 260° |
| 2026-05-01 09:37 | 57.09527 | 9.85790 | 19 ft | 74 kts | 263° |
| 2026-05-01 09:38 | 57.09450 | 9.84529 | 19 ft | 30 kts | 263° |
| 2026-05-01 09:38 | 57.09431 | 9.84300 | 19 ft | 12 kts | 235° |
| 2026-05-01 09:38 | 57.09355 | 9.84356 | 19 ft | 13 kts | 142° |
| 2026-05-01 09:39 | 57.09262 | 9.84538 | 19 ft | 12 kts | 101° |
| 2026-05-01 09:39 | 57.09269 | 9.84711 | 19 ft | 15 kts | 83° |
| 2026-05-01 09:39 | 57.09283 | 9.84921 | 19 ft | 18 kts | 83° |
| 2026-05-01 09:40 | 57.09298 | 9.85168 | 19 ft | 21 kts | 83° |
| 2026-05-01 09:40 | 57.09333 | 9.85725 | 19 ft | 17 kts | 84° |
| 2026-05-01 09:40 | 57.09331 | 9.85900 | 19 ft | 13 kts | 127° |
| 2026-05-01 09:41 | 57.09254 | 9.86011 | 19 ft | 16 kts | 143° |
| 2026-05-01 09:41 | 57.09055 | 9.86291 | 19 ft | 16 kts | 142° |
| 2026-05-01 09:41 | 57.08954 | 9.86433 | 19 ft | 20 kts | 142° |
| 2026-05-01 09:42 | 57.08851 | 9.86578 | 19 ft | 18 kts | 142° |
| 2026-05-01 09:42 | 57.08755 | 9.86714 | 19 ft | 13 kts | 143° |
| 2026-05-01 09:42 | 57.08714 | 9.86867 | 19 ft | 7 kts | 44° |
| 2026-05-01 09:43 | 57.08741 | 9.86942 | 19 ft | 0 kts | 57° |